createdAt,value
2022-10-06T00:01:04.126Z,86.08
2022-10-06T00:03:32.195Z,86.18
2022-10-06T00:06:01.468Z,86.24
2022-10-06T00:08:29.757Z,86.53
2022-10-06T00:10:58.540Z,86.30
2022-10-06T00:13:28.433Z,86.21
2022-10-06T00:15:56.454Z,86.45
2022-10-06T00:18:24.607Z,86.80
2022-10-06T00:20:56.821Z,86.44
2022-10-06T00:23:24.968Z,86.75
2022-10-06T00:25:53.107Z,86.63
2022-10-06T00:28:21.630Z,87.32
2022-10-06T00:30:53.532Z,86.63
2022-10-06T00:33:21.771Z,86.48
2022-10-06T00:35:56.836Z,86.37
2022-10-06T00:38:26.054Z,86.84
2022-10-06T00:40:54.144Z,86.93
2022-10-06T00:43:53.092Z,86.60
2022-10-06T00:46:31.998Z,86.87
2022-10-06T00:49:06.069Z,87.17
2022-10-06T00:51:35.194Z,87.01
2022-10-06T00:54:03.830Z,87.06
2022-10-06T00:56:32.774Z,87.22
2022-10-06T00:59:01.177Z,87.25
2022-10-06T01:01:32.498Z,87.06
2022-10-06T01:04:06.069Z,87.68
2022-10-06T01:06:45.197Z,86.91
2022-10-06T01:09:14.328Z,87.51
2022-10-06T01:11:42.724Z,86.64
2022-10-06T01:14:11.196Z,86.45
2022-10-06T01:16:44.656Z,86.58
2022-10-06T01:19:22.779Z,86.53
2022-10-06T01:21:52.161Z,87.01
2022-10-06T01:24:21.698Z,86.57
2022-10-06T01:26:52.743Z,86.56
2022-10-06T01:29:21.522Z,86.77
2022-10-06T01:31:49.972Z,86.91
2022-10-06T01:34:17.918Z,86.55
2022-10-06T01:36:46.578Z,86.58
2022-10-06T01:39:14.995Z,86.82
2022-10-06T01:41:47.672Z,87.28
2022-10-06T01:44:16.213Z,86.87
2022-10-06T01:46:44.179Z,87.29
2022-10-06T01:49:12.223Z,86.76
2022-10-06T01:52:02.535Z,87.13
2022-10-06T01:54:40.658Z,87.36
2022-10-06T01:57:14.036Z,86.64
2022-10-06T01:59:58.205Z,87.09
2022-10-06T02:02:40.474Z,86.82
2022-10-06T02:05:24.361Z,87.13
2022-10-06T02:08:16.399Z,87.64
2022-10-06T02:10:51.330Z,87.53
2022-10-06T02:13:36.372Z,87.43
2022-10-06T02:16:17.053Z,87.35
2022-10-06T02:18:53.212Z,88.29
2022-10-06T02:21:31.796Z,87.32
2022-10-06T02:24:15.767Z,87.86
2022-10-06T02:27:01.812Z,87.80
2022-10-06T02:29:46.910Z,87.61
2022-10-06T02:32:56.824Z,87.77
2022-10-06T02:35:39.958Z,87.51
2022-10-06T02:38:19.524Z,87.72
2022-10-06T02:40:50.218Z,87.82
2022-10-06T02:43:23.575Z,88.02
2022-10-06T02:46:22.599Z,87.55
2022-10-06T02:55:22.254Z,88.86
2022-10-06T02:58:10.184Z,88.66
2022-10-06T03:00:47.290Z,89.28
2022-10-06T03:03:52.875Z,89.15
2022-10-06T03:06:43.729Z,89.11
2022-10-06T03:09:37.968Z,89.01
2022-10-06T03:12:06.910Z,89.17
2022-10-06T03:15:10.845Z,89.21
2022-10-06T03:18:06.864Z,89.46
2022-10-06T03:20:57.627Z,89.09
2022-10-06T03:23:54.689Z,88.91
2022-10-06T03:26:38.672Z,88.98
2022-10-06T03:29:32.133Z,88.93
2022-10-06T03:32:22.041Z,89.00
2022-10-06T03:35:10.752Z,89.55
2022-10-06T03:38:05.861Z,89.17
2022-10-06T03:41:36.549Z,89.18
2022-10-06T03:44:20.799Z,89.71
2022-10-06T03:47:16.065Z,89.08
2022-10-06T03:49:52.359Z,88.99
2022-10-06T03:53:22.363Z,89.11
2022-10-06T03:56:51.220Z,89.07
2022-10-06T03:59:44.039Z,90.02
2022-10-06T04:02:34.032Z,89.63
2022-10-06T04:05:16.042Z,89.34
2022-10-06T04:08:07.509Z,89.87
2022-10-06T04:14:41.061Z,90.22
2022-10-06T04:24:31.364Z,90.66
2022-10-06T04:27:35.855Z,90.80
2022-10-06T04:34:46.760Z,90.56
2022-10-06T04:37:52.487Z,90.53
2022-10-06T04:41:10.809Z,90.34
2022-10-06T04:43:52.697Z,90.18
2022-10-06T04:46:49.442Z,89.93
2022-10-06T04:49:31.390Z,90.08
2022-10-06T04:51:59.535Z,90.19
2022-10-06T04:54:33.686Z,90.06
2022-10-06T04:57:02.864Z,90.27
2022-10-06T04:59:49.557Z,90.47
2022-10-06T05:02:20.779Z,90.22
2022-10-06T05:04:53.321Z,91.11
2022-10-06T05:07:24.257Z,91.42
2022-10-06T05:09:52.303Z,91.40
2022-10-06T05:12:20.447Z,91.47
2022-10-06T05:14:48.353Z,91.97
2022-10-06T05:17:16.956Z,91.98
2022-10-06T05:19:46.946Z,92.45
2022-10-06T05:22:15.034Z,92.21
2022-10-06T05:24:43.110Z,92.17
2022-10-06T05:27:11.140Z,92.27
2022-10-06T05:29:39.586Z,92.96
2022-10-06T05:32:10.124Z,92.64
2022-10-06T05:34:39.028Z,92.53
2022-10-06T05:37:09.495Z,92.57
2022-10-06T05:39:37.644Z,92.22
2022-10-06T05:42:06.454Z,92.00
2022-10-06T05:44:34.899Z,92.17
2022-10-06T05:47:07.924Z,92.10
2022-10-06T05:49:36.688Z,92.17
2022-10-06T05:52:06.079Z,92.36
2022-10-06T05:54:38.352Z,92.90
2022-10-06T05:57:08.003Z,92.73
2022-10-06T05:59:36.496Z,92.62
2022-10-06T06:02:05.912Z,92.10
2022-10-06T06:04:53.917Z,92.56
2022-10-06T06:07:21.951Z,92.41
2022-10-06T06:09:51.494Z,92.54
2022-10-06T06:12:20.208Z,92.85
2022-10-06T06:15:11.577Z,92.69
2022-10-06T06:17:48.049Z,92.28
2022-10-06T06:20:16.072Z,92.27
2022-10-06T06:22:44.842Z,92.20
2022-10-06T06:25:14.478Z,92.12
2022-10-06T06:27:50.742Z,92.74
2022-10-06T06:30:19.040Z,92.37
2022-10-06T06:32:47.231Z,92.48
2022-10-06T06:35:15.260Z,92.74
2022-10-06T06:37:45.081Z,92.66
2022-10-06T06:40:14.679Z,92.67
2022-10-06T06:42:42.737Z,92.51
2022-10-06T06:45:22.673Z,92.91
2022-10-06T06:48:04.283Z,92.74
2022-10-06T06:50:33.445Z,92.57
2022-10-06T06:53:02.550Z,91.96
2022-10-06T06:55:34.250Z,92.42
2022-10-06T06:58:02.402Z,92.87
2022-10-06T07:00:35.226Z,91.83
2022-10-06T07:03:04.465Z,92.22
2022-10-06T07:05:33.518Z,92.97
2022-10-06T07:08:01.475Z,93.33
2022-10-06T07:10:35.357Z,92.96
2022-10-06T07:13:06.853Z,92.55
2022-10-06T07:15:52.196Z,92.97
2022-10-06T07:18:37.691Z,92.88
2022-10-06T07:21:28.115Z,92.67
2022-10-06T07:24:13.469Z,92.96
2022-10-06T07:26:41.619Z,93.36
2022-10-06T07:29:11.242Z,93.21
2022-10-06T07:31:43.030Z,93.16
2022-10-06T07:34:11.032Z,93.47
2022-10-06T07:36:39.620Z,93.12
2022-10-06T07:39:10.487Z,93.54
2022-10-06T07:41:39.114Z,93.72
2022-10-06T07:44:08.150Z,93.81
2022-10-06T07:46:39.171Z,93.74
2022-10-06T07:49:11.855Z,93.08
2022-10-06T07:51:41.284Z,92.80
2022-10-06T07:54:09.361Z,92.90
2022-10-06T07:56:52.963Z,91.79
2022-10-06T07:59:21.267Z,91.16
2022-10-06T08:01:52.524Z,91.16
2022-10-06T08:04:20.551Z,90.95
2022-10-06T08:06:49.519Z,90.48
2022-10-06T08:09:17.558Z,90.04
2022-10-06T08:11:47.335Z,89.44
2022-10-06T08:14:15.282Z,87.76
2022-10-06T08:16:43.427Z,87.23
2022-10-06T08:19:14.578Z,87.10
2022-10-06T08:21:42.542Z,86.93
2022-10-06T08:24:11.019Z,85.00
2022-10-06T08:26:39.078Z,82.60
2022-10-06T08:29:07.083Z,78.64
2022-10-06T08:31:35.111Z,79.29
2022-10-06T08:34:03.152Z,78.52
2022-10-06T08:36:32.898Z,79.75
2022-10-06T08:39:01.429Z,78.22
2022-10-06T08:41:40.286Z,76.40
2022-10-06T08:44:22.046Z,74.79
2022-10-06T08:46:55.378Z,75.13
2022-10-06T08:49:27.005Z,74.46
2022-10-06T08:52:06.221Z,72.88
2022-10-06T08:54:41.174Z,72.64
2022-10-06T08:57:18.778Z,72.97
2022-10-06T08:59:53.875Z,73.35
2022-10-06T09:02:30.287Z,73.41
2022-10-06T09:05:01.291Z,73.12
2022-10-06T09:07:39.955Z,72.78
2022-10-06T09:10:24.435Z,71.34
2022-10-06T09:12:55.983Z,71.82
2022-10-06T09:15:34.051Z,71.80
2022-10-06T09:18:10.736Z,71.07
2022-10-06T09:20:43.477Z,71.80
2022-10-06T09:23:37.998Z,70.95
2022-10-06T09:26:07.260Z,70.72
2022-10-06T09:28:35.223Z,70.08
2022-10-06T09:31:04.025Z,71.82
2022-10-06T09:33:39.919Z,70.94
2022-10-06T09:36:10.273Z,71.29
2022-10-06T09:38:54.337Z,71.08
2022-10-06T09:41:31.771Z,69.84
2022-10-06T09:44:01.513Z,69.51
2022-10-06T09:46:32.772Z,69.67
2022-10-06T09:49:18.510Z,70.08
2022-10-06T09:52:01.079Z,69.20
2022-10-06T09:54:31.274Z,69.02
2022-10-06T09:57:23.222Z,67.77
2022-10-06T10:00:00.176Z,68.49
2022-10-06T10:02:36.998Z,68.60
2022-10-06T10:05:07.762Z,68.74
2022-10-06T10:07:37.496Z,67.93
2022-10-06T10:10:20.215Z,67.91
2022-10-06T10:12:52.101Z,68.37
2022-10-06T10:15:31.235Z,67.45
2022-10-06T10:18:03.073Z,66.90
2022-10-06T10:20:37.614Z,67.70
2022-10-06T10:23:19.863Z,68.14
2022-10-06T10:26:04.930Z,68.46
2022-10-06T10:29:12.331Z,68.80
2022-10-06T10:31:50.882Z,68.69
2022-10-06T10:34:38.307Z,68.55
2022-10-06T10:37:13.438Z,67.79
2022-10-06T10:39:47.536Z,66.61
2022-10-06T10:42:22.018Z,67.53
2022-10-06T10:44:56.058Z,66.32
2022-10-06T10:47:27.902Z,66.92
2022-10-06T10:50:04.203Z,65.78
2022-10-06T10:52:42.455Z,66.82
2022-10-06T10:55:23.527Z,65.78
2022-10-06T10:57:54.993Z,66.75
2022-10-06T11:00:27.117Z,66.43
2022-10-06T11:02:58.400Z,65.57
2022-10-06T11:05:38.541Z,66.27
2022-10-06T11:08:15.450Z,67.08
2022-10-06T11:10:49.244Z,66.71
2022-10-06T11:13:30.641Z,66.47
2022-10-06T11:16:17.867Z,65.79
2022-10-06T11:19:09.908Z,65.80
2022-10-06T11:21:44.554Z,66.40
2022-10-06T11:24:20.849Z,65.71
2022-10-06T11:27:23.008Z,65.91
2022-10-06T11:30:03.295Z,65.66
2022-10-06T11:32:43.914Z,66.15
2022-10-06T11:35:19.355Z,66.08
2022-10-06T11:37:54.428Z,66.90
2022-10-06T11:40:32.905Z,66.69
2022-10-06T11:43:07.576Z,66.48
2022-10-06T11:45:55.319Z,66.39
2022-10-06T11:48:31.135Z,66.23
2022-10-06T11:51:29.898Z,66.10
2022-10-06T11:54:03.283Z,66.71
2022-10-06T11:56:41.224Z,67.64
2022-10-06T11:59:28.584Z,66.82
2022-10-06T12:02:00.886Z,67.35
2022-10-06T12:04:30.437Z,67.75
2022-10-06T12:08:14.710Z,67.18
2022-10-06T12:11:16.447Z,67.18
2022-10-06T12:15:12.126Z,66.73
2022-10-06T12:17:15.357Z,66.23
2022-10-06T12:20:03.495Z,66.10
2022-10-06T12:23:23.120Z,66.04
2022-10-06T12:26:27.743Z,65.59
2022-10-06T12:29:47.168Z,65.46
2022-10-06T12:32:53.171Z,65.70
2022-10-06T12:35:44.762Z,65.91
2022-10-06T12:38:58.548Z,65.52
2022-10-06T12:42:06.603Z,64.82
2022-10-06T12:44:40.037Z,65.40
2022-10-06T12:47:24.762Z,66.09
2022-10-06T12:50:28.936Z,66.09
2022-10-06T12:53:09.413Z,65.60
2022-10-06T12:55:55.012Z,65.89
2022-10-06T12:58:40.435Z,65.65
2022-10-06T13:04:43.036Z,65.37
2022-10-06T13:07:18.966Z,65.35
2022-10-06T13:10:12.069Z,64.67
2022-10-06T13:12:52.345Z,64.43
2022-10-06T13:15:40.667Z,64.37
2022-10-06T13:18:36.776Z,63.82
2022-10-06T13:21:20.452Z,63.60
2022-10-06T13:23:56.753Z,63.49
2022-10-06T13:27:11.595Z,63.12
2022-10-06T13:30:26.760Z,63.40
2022-10-06T13:33:05.590Z,63.94
2022-10-06T13:35:43.145Z,64.09
2022-10-06T13:41:38.392Z,63.54
2022-10-06T13:44:30.063Z,64.42
2022-10-06T13:47:10.428Z,65.58
2022-10-06T13:50:03.391Z,65.66
2022-10-06T13:52:39.267Z,65.95
2022-10-06T13:55:25.456Z,65.19
2022-10-06T13:58:22.221Z,64.43
2022-10-06T14:01:26.700Z,65.14
2022-10-06T14:04:16.391Z,65.19
2022-10-06T14:06:56.624Z,65.25
2022-10-06T14:09:45.460Z,65.17
2022-10-06T14:12:20.631Z,64.97
2022-10-06T14:15:07.696Z,65.07
2022-10-06T14:18:39.560Z,65.56
2022-10-06T14:21:53.434Z,65.49
2022-10-06T14:24:56.661Z,65.63
2022-10-06T14:27:45.459Z,65.35
2022-10-06T14:30:21.403Z,65.58
2022-10-06T14:33:15.152Z,65.29
2022-10-06T14:35:52.664Z,65.66
2022-10-06T14:38:22.215Z,65.74
2022-10-06T14:41:01.808Z,65.10
2022-10-06T14:43:38.910Z,65.02
2022-10-06T14:46:14.311Z,65.37
2022-10-06T14:48:42.384Z,65.85
2022-10-06T14:51:10.799Z,66.01
2022-10-06T14:53:40.449Z,66.01
2022-10-06T14:56:10.707Z,66.02
2022-10-06T14:58:48.158Z,66.34
2022-10-06T15:02:04.438Z,66.40
2022-10-06T15:04:36.101Z,66.03
2022-10-06T15:07:24.632Z,66.30
2022-10-06T15:10:15.364Z,66.82
2022-10-06T15:13:02.404Z,66.57
2022-10-06T15:16:00.641Z,66.33
2022-10-06T15:18:34.238Z,66.67
2022-10-06T15:21:04.466Z,67.37
2022-10-06T15:23:37.009Z,66.77
2022-10-06T15:26:31.538Z,67.67
2022-10-06T15:29:13.793Z,67.00
2022-10-06T15:32:03.665Z,67.19
2022-10-06T15:34:53.798Z,67.43
2022-10-06T15:37:27.455Z,67.61
2022-10-06T15:39:58.770Z,68.16
2022-10-06T15:42:28.206Z,67.71
2022-10-06T15:44:56.182Z,68.21
2022-10-06T15:47:24.769Z,68.65
2022-10-06T15:49:52.765Z,68.77
2022-10-06T15:52:21.077Z,68.83
2022-10-06T15:54:49.899Z,69.41
2022-10-06T15:57:20.936Z,69.39
2022-10-06T15:59:51.433Z,69.29
2022-10-06T16:02:21.093Z,69.22
2022-10-06T16:05:17.837Z,69.87
2022-10-06T16:07:45.820Z,70.18
2022-10-06T16:10:14.027Z,69.55
2022-10-06T16:12:41.961Z,69.89
2022-10-06T16:15:12.043Z,70.40
2022-10-06T16:17:40.200Z,70.52
2022-10-06T16:20:09.842Z,70.52
2022-10-06T16:22:41.731Z,70.25
2022-10-06T16:25:10.433Z,70.62
2022-10-06T16:27:39.503Z,70.35
2022-10-06T16:30:09.261Z,70.74
2022-10-06T16:32:38.795Z,71.43
2022-10-06T16:35:07.974Z,71.13
2022-10-06T16:37:35.893Z,70.86
2022-10-06T16:40:07.228Z,72.58
2022-10-06T16:42:35.161Z,72.10
2022-10-06T16:45:03.068Z,72.60
2022-10-06T16:47:31.279Z,72.32
2022-10-06T16:50:00.561Z,71.81
2022-10-06T16:53:24.807Z,72.50
2022-10-06T16:56:36.927Z,72.00
2022-10-06T16:59:31.080Z,72.34
2022-10-06T17:02:12.979Z,72.22
2022-10-06T17:05:11.898Z,71.90
2022-10-06T17:08:05.166Z,73.33
2022-10-06T17:10:44.944Z,72.51
2022-10-06T17:13:51.235Z,72.11
2022-10-06T17:16:48.020Z,73.26
2022-10-06T17:19:31.746Z,72.25
2022-10-06T17:22:22.358Z,73.27
2022-10-06T17:28:06.856Z,73.13
2022-10-06T17:30:45.633Z,72.73
2022-10-06T17:33:39.153Z,72.57
2022-10-06T17:36:25.816Z,72.83
2022-10-06T17:39:05.952Z,73.58
2022-10-06T17:41:39.613Z,73.53
2022-10-06T17:44:36.634Z,73.17
2022-10-06T17:47:22.442Z,72.34
2022-10-06T17:50:13.531Z,72.84
2022-10-06T17:53:18.192Z,72.61
2022-10-06T17:56:21.848Z,72.64
2022-10-06T17:59:26.278Z,73.50
2022-10-06T18:02:20.101Z,74.55
2022-10-06T18:05:04.351Z,73.77
2022-10-06T18:08:03.796Z,75.63
2022-10-06T18:10:59.696Z,76.12
2022-10-06T18:16:42.022Z,77.68
2022-10-06T18:19:33.312Z,77.53
2022-10-06T18:22:17.885Z,77.21
2022-10-06T18:28:52.396Z,78.29
2022-10-06T18:34:12.022Z,78.89
2022-10-06T18:39:00.477Z,78.05
2022-10-06T18:48:30.115Z,78.62
2022-10-06T18:54:06.410Z,78.80
2022-10-06T18:56:37.541Z,79.83
2022-10-06T18:59:08.881Z,79.99
2022-10-06T19:01:41.425Z,80.08
2022-10-06T19:04:14.861Z,80.40
2022-10-06T19:06:56.486Z,80.88
2022-10-06T19:09:26.327Z,80.75
2022-10-06T19:11:56.861Z,81.27
2022-10-06T19:14:26.415Z,81.21
2022-10-06T19:16:56.419Z,81.47
2022-10-06T19:19:27.157Z,81.55
2022-10-06T19:21:59.447Z,81.11
2022-10-06T19:24:30.075Z,81.79
2022-10-06T19:26:59.343Z,81.79
2022-10-06T19:29:27.954Z,81.07
2022-10-06T19:32:11.530Z,81.81
2022-10-06T19:34:40.779Z,81.54
2022-10-06T19:37:09.297Z,80.99
2022-10-06T19:39:43.018Z,81.19
2022-10-06T19:42:29.398Z,81.85
2022-10-06T19:44:58.065Z,82.23
2022-10-06T19:47:27.012Z,82.69
2022-10-06T19:50:02.152Z,82.12
2022-10-06T19:52:32.426Z,82.04
2022-10-06T19:55:00.976Z,82.04
2022-10-06T19:57:29.768Z,82.12
2022-10-06T19:59:57.711Z,82.20
2022-10-06T20:02:25.614Z,82.40
2022-10-06T20:04:53.500Z,82.17
2022-10-06T20:07:25.528Z,82.60
2022-10-06T20:09:53.471Z,82.47
2022-10-06T20:12:24.876Z,82.68
2022-10-06T20:14:53.834Z,82.86
2022-10-06T20:17:23.128Z,83.51
2022-10-06T20:19:56.734Z,83.48
2022-10-06T20:22:27.225Z,83.61
2022-10-06T20:24:55.328Z,84.29
2022-10-06T20:27:23.260Z,83.83
2022-10-06T20:29:51.228Z,83.72
2022-10-06T20:32:19.127Z,83.44
2022-10-06T20:34:47.037Z,83.07
2022-10-06T20:37:15.055Z,83.12
2022-10-06T20:40:01.524Z,83.08
2022-10-06T20:42:31.441Z,82.69
2022-10-06T20:44:59.494Z,82.58
2022-10-06T20:47:27.861Z,82.55
2022-10-06T20:49:55.722Z,82.55
2022-10-06T20:52:24.219Z,82.93
2022-10-06T20:54:53.527Z,83.05
2022-10-06T20:57:21.557Z,83.08
2022-10-06T20:59:49.541Z,83.40
2022-10-06T21:02:17.855Z,83.50
2022-10-06T21:04:45.769Z,82.70
2022-10-06T21:07:14.170Z,82.26
2022-10-06T21:09:42.071Z,83.10
2022-10-06T21:12:11.424Z,83.04
2022-10-06T21:14:42.234Z,83.21
2022-10-06T21:17:10.151Z,82.21
2022-10-06T21:19:38.173Z,82.45
2022-10-06T21:22:06.479Z,82.72
2022-10-06T21:24:34.381Z,82.42
2022-10-06T21:27:03.106Z,82.44
2022-10-06T21:29:32.395Z,82.97
2022-10-06T21:32:00.429Z,82.31
2022-10-06T21:34:28.325Z,82.71
2022-10-06T21:36:56.602Z,82.87
2022-10-06T21:39:24.453Z,83.18
2022-10-06T21:41:52.342Z,83.77
2022-10-06T21:44:20.259Z,83.48
2022-10-06T21:46:51.120Z,84.21
2022-10-06T21:49:21.364Z,84.56
2022-10-06T21:51:51.012Z,84.93
2022-10-06T21:54:20.038Z,84.33
2022-10-06T21:56:47.929Z,84.96
2022-10-06T21:59:15.926Z,85.70
2022-10-06T22:01:45.725Z,85.26
2022-10-06T22:04:16.234Z,85.03
2022-10-06T22:06:49.807Z,84.88
2022-10-06T22:09:22.529Z,85.55
2022-10-06T22:11:50.623Z,85.37
2022-10-06T22:14:20.250Z,85.65
2022-10-06T22:16:48.482Z,85.96
2022-10-06T22:19:18.389Z,85.68
2022-10-06T22:21:48.523Z,86.14
2022-10-06T22:24:18.650Z,85.79
2022-10-06T22:26:47.382Z,85.79
2022-10-06T22:29:17.926Z,85.80
2022-10-06T22:31:47.528Z,85.49
2022-10-06T22:34:18.675Z,85.21
2022-10-06T22:36:46.684Z,85.62
2022-10-06T22:39:14.584Z,85.50
2022-10-06T22:41:42.619Z,85.77
2022-10-06T22:44:10.620Z,85.68
2022-10-06T22:46:39.115Z,85.45
2022-10-06T22:49:07.422Z,85.96
2022-10-06T22:51:36.897Z,86.20
2022-10-06T22:54:05.221Z,86.59
2022-10-06T22:56:34.789Z,85.80
2022-10-06T22:59:02.769Z,86.44
2022-10-06T23:01:31.507Z,86.02
2022-10-06T23:03:59.766Z,86.50
2022-10-06T23:06:29.648Z,86.74
2022-10-06T23:08:59.193Z,86.69
2022-10-06T23:11:27.069Z,85.88
2022-10-06T23:13:55.026Z,85.67
2022-10-06T23:16:23.404Z,85.91
2022-10-06T23:18:51.850Z,86.69
2022-10-06T23:21:22.535Z,86.56
2022-10-06T23:23:52.293Z,86.68
2022-10-06T23:26:23.229Z,86.72
2022-10-06T23:28:56.006Z,86.74
2022-10-06T23:31:24.612Z,86.86
2022-10-06T23:33:53.005Z,86.63
2022-10-06T23:36:21.959Z,86.70
2022-10-06T23:38:50.104Z,87.31
2022-10-06T23:41:18.008Z,87.28
2022-10-06T23:43:47.566Z,87.18
2022-10-06T23:46:15.880Z,86.97
2022-10-06T23:48:44.131Z,86.86
2022-10-06T23:51:14.181Z,87.22
2022-10-06T23:53:42.992Z,86.84
2022-10-06T23:56:11.478Z,86.94
2022-10-06T23:58:41.655Z,86.63
